createdAt,value
2023-05-10T00:00:30.217Z,48.35
2023-05-10T00:02:57.694Z,63.75
2023-05-10T00:05:24.663Z,49.70
2023-05-10T00:07:52.932Z,51.55
2023-05-10T00:10:19.912Z,59.00
2023-05-10T00:12:46.998Z,53.72
2023-05-10T00:15:13.933Z,56.75
2023-05-10T00:17:41.139Z,55.40
2023-05-10T00:20:08.892Z,53.20
2023-05-10T00:22:35.999Z,53.10
2023-05-10T00:25:05.242Z,53.58
2023-05-10T00:27:32.106Z,49.72
2023-05-10T00:29:59.030Z,61.70
2023-05-10T00:32:25.836Z,51.15
2023-05-10T00:34:53.186Z,44.75
2023-05-10T00:37:20.064Z,39.72
2023-05-10T00:39:47.016Z,44.40
2023-05-10T00:42:15.795Z,44.45
2023-05-10T00:44:42.957Z,37.83
2023-05-10T00:47:10.326Z,41.72
2023-05-10T00:49:37.728Z,39.10
2023-05-10T00:52:05.217Z,36.45
2023-05-10T00:54:32.245Z,40.45
2023-05-10T00:56:59.814Z,40.60
2023-05-10T00:59:28.219Z,38.35
2023-05-10T01:01:55.479Z,32.47
2023-05-10T01:04:26.775Z,42.03
2023-05-10T01:06:54.757Z,32.83
2023-05-10T01:09:22.620Z,38.30
2023-05-10T01:11:50.952Z,38.20
2023-05-10T01:14:20.974Z,34.22
2023-05-10T01:16:50.990Z,42.83
2023-05-10T01:19:20.986Z,37.75
2023-05-10T01:21:56.202Z,37.53
2023-05-10T01:24:55.544Z,38.38
2023-05-10T01:27:48.548Z,42.50
2023-05-10T01:30:47.385Z,35.15
2023-05-10T01:33:19.189Z,36.10
2023-05-10T01:35:52.917Z,31.73
2023-05-10T01:38:28.562Z,30.38
2023-05-10T01:41:06.725Z,35.05
2023-05-10T01:43:43.839Z,30.17
2023-05-10T01:46:15.708Z,29.65
2023-05-10T01:48:51.977Z,35.03
2023-05-10T01:51:37.402Z,29.13
2023-05-10T01:54:07.037Z,34.03
2023-05-10T01:56:36.565Z,31.33
2023-05-10T01:59:09.755Z,33.88
2023-05-10T02:01:39.815Z,33.92
2023-05-10T02:04:10.128Z,30.88
2023-05-10T02:06:39.374Z,32.33
2023-05-10T02:09:07.699Z,31.67
2023-05-10T02:11:34.810Z,45.58
2023-05-10T02:14:02.371Z,34.97
2023-05-10T02:16:32.080Z,33.92
2023-05-10T02:19:02.244Z,28.42
2023-05-10T02:21:31.940Z,29.58
2023-05-10T02:24:00.285Z,27.20
2023-05-10T02:26:27.919Z,23.63
2023-05-10T02:28:57.402Z,30.58
2023-05-10T02:31:24.587Z,23.95
2023-05-10T02:33:52.628Z,24.98
2023-05-10T02:36:22.496Z,22.08
2023-05-10T02:38:53.036Z,26.45
2023-05-10T02:41:22.469Z,28.05
2023-05-10T02:43:51.922Z,23.10
2023-05-10T02:46:19.377Z,29.15
2023-05-10T02:48:46.635Z,35.00
2023-05-10T02:51:18.766Z,32.92
2023-05-10T02:53:49.277Z,23.50
2023-05-10T02:56:26.959Z,29.45
2023-05-10T02:58:53.906Z,28.38
2023-05-10T03:01:20.861Z,29.95
2023-05-10T03:03:47.687Z,33.70
2023-05-10T03:06:14.772Z,32.22
2023-05-10T03:08:41.641Z,31.05
2023-05-10T03:11:25.343Z,33.80
2023-05-10T03:14:03.797Z,33.00
2023-05-10T03:16:36.803Z,29.58
2023-05-10T03:19:10.938Z,32.65
2023-05-10T03:21:41.953Z,27.00
2023-05-10T03:24:12.964Z,33.20
2023-05-10T03:26:43.974Z,29.73
2023-05-10T03:29:11.500Z,35.85
2023-05-10T03:31:39.515Z,31.67
2023-05-10T03:34:07.269Z,38.45
2023-05-10T03:36:34.412Z,38.38
2023-05-10T03:39:01.516Z,35.33
2023-05-10T03:41:28.362Z,39.03
2023-05-10T03:43:56.663Z,39.95
2023-05-10T03:46:23.584Z,42.15
2023-05-10T03:48:50.486Z,45.33
2023-05-10T03:51:17.319Z,42.70
2023-05-10T03:53:44.211Z,48.38
2023-05-10T03:56:11.315Z,51.72
2023-05-10T03:58:38.217Z,38.17
2023-05-10T04:01:06.480Z,44.42
2023-05-10T04:03:33.404Z,42.65
2023-05-10T04:06:01.589Z,44.97
2023-05-10T04:08:28.590Z,49.15
2023-05-10T04:10:55.556Z,45.00
2023-05-10T04:13:23.884Z,43.28
2023-05-10T04:15:50.911Z,54.30
2023-05-10T04:18:19.177Z,42.65
2023-05-10T04:20:46.020Z,47.28
2023-05-10T04:23:12.866Z,52.92
2023-05-10T04:25:39.705Z,44.50
2023-05-10T04:28:06.587Z,44.85
2023-05-10T04:30:35.225Z,43.47
2023-05-10T04:33:02.954Z,37.65
2023-05-10T04:35:31.481Z,44.20
2023-05-10T04:37:58.473Z,39.10
2023-05-10T04:40:25.386Z,39.45
2023-05-10T04:42:52.524Z,35.42
2023-05-10T04:45:19.607Z,37.83
2023-05-10T04:47:46.467Z,35.42
2023-05-10T04:50:13.340Z,34.10
2023-05-10T04:52:41.537Z,33.58
2023-05-10T04:55:10.579Z,35.08
2023-05-10T04:57:37.452Z,47.90
2023-05-10T05:00:05.370Z,35.22
2023-05-10T05:02:32.338Z,31.33
2023-05-10T05:04:59.243Z,35.00
2023-05-10T05:07:26.455Z,33.13
2023-05-10T05:09:54.801Z,27.80
2023-05-10T05:12:21.643Z,28.48
2023-05-10T05:14:48.526Z,35.42
2023-05-10T05:17:15.365Z,27.33
2023-05-10T05:19:42.165Z,31.38
2023-05-10T05:22:09.734Z,35.40
2023-05-10T05:24:38.738Z,28.42
2023-05-10T05:27:07.207Z,29.55
2023-05-10T05:29:34.114Z,30.13
2023-05-10T05:32:01.303Z,33.10
2023-05-10T05:34:28.245Z,28.60
2023-05-10T05:36:55.227Z,33.05
2023-05-10T05:39:22.163Z,22.02
2023-05-10T05:41:49.009Z,27.10
2023-05-10T05:44:17.217Z,34.25
2023-05-10T05:46:44.101Z,23.15
2023-05-10T05:49:11.131Z,26.05
2023-05-10T05:51:38.012Z,34.97
2023-05-10T05:54:05.464Z,25.38
2023-05-10T05:56:32.301Z,30.95
2023-05-10T05:58:59.172Z,33.70
2023-05-10T06:01:27.399Z,27.00
2023-05-10T06:03:54.346Z,24.02
2023-05-10T06:06:21.233Z,27.05
2023-05-10T06:08:48.084Z,26.05
2023-05-10T06:11:14.860Z,25.60
2023-05-10T06:13:41.739Z,30.27
2023-05-10T06:16:08.716Z,46.00
2023-05-10T06:18:37.314Z,49.38
2023-05-10T06:21:04.295Z,40.20
2023-05-10T06:23:31.105Z,38.78
2023-05-10T06:25:57.972Z,47.15
2023-05-10T06:28:25.057Z,42.25
2023-05-10T06:30:51.801Z,45.47
2023-05-10T06:33:18.627Z,34.60
2023-05-10T06:35:46.967Z,37.55
2023-05-10T06:38:13.850Z,30.92
2023-05-10T06:40:42.673Z,29.35
2023-05-10T06:43:09.510Z,38.42
2023-05-10T06:45:36.520Z,40.15
2023-05-10T06:48:03.778Z,31.77
2023-05-10T06:50:30.821Z,28.58
2023-05-10T06:52:59.052Z,23.88
2023-05-10T06:55:26.175Z,33.05
2023-05-10T06:57:53.151Z,26.83
2023-05-10T07:00:21.157Z,22.10
2023-05-10T07:02:48.742Z,22.02
2023-05-10T07:05:16.472Z,20.27
2023-05-10T07:07:43.885Z,32.38
2023-05-10T07:10:12.481Z,33.80
2023-05-10T07:12:39.628Z,45.40
2023-05-10T07:15:07.887Z,32.03
2023-05-10T07:17:34.876Z,31.17
2023-05-10T07:20:01.866Z,21.27
2023-05-10T07:22:28.838Z,22.90
2023-05-10T07:24:55.956Z,21.20
2023-05-10T07:27:24.222Z,19.90
2023-05-10T07:29:51.569Z,20.00
2023-05-10T07:32:18.424Z,21.83
2023-05-10T07:34:45.371Z,16.60
2023-05-10T07:37:12.548Z,20.88
2023-05-10T07:39:39.473Z,18.38
2023-05-10T07:42:06.720Z,22.10
2023-05-10T07:44:34.918Z,21.10
2023-05-10T07:47:01.765Z,17.40
2023-05-10T07:49:28.714Z,22.45
2023-05-10T07:51:55.595Z,25.40
2023-05-10T07:54:22.622Z,31.30
2023-05-10T07:56:49.550Z,23.73
2023-05-10T07:59:18.046Z,23.60
2023-05-10T08:01:46.325Z,26.85
2023-05-10T08:04:13.291Z,17.02
2023-05-10T08:06:40.803Z,17.42
2023-05-10T08:09:07.785Z,17.25
2023-05-10T08:11:35.226Z,16.48
2023-05-10T08:14:02.586Z,20.10
2023-05-10T08:16:30.057Z,21.58
2023-05-10T08:18:58.519Z,15.85
2023-05-10T08:21:25.566Z,20.65
2023-05-10T08:23:52.442Z,16.65
2023-05-10T08:26:19.466Z,19.77
2023-05-10T08:28:46.296Z,15.82
2023-05-10T08:31:13.368Z,17.60
2023-05-10T08:33:42.082Z,21.38
2023-05-10T08:36:10.870Z,20.17
2023-05-10T08:38:39.105Z,18.92
2023-05-10T08:41:07.344Z,17.92
2023-05-10T08:43:36.847Z,19.63
2023-05-10T08:46:06.558Z,18.90
2023-05-10T08:48:35.620Z,15.10
2023-05-10T08:51:04.848Z,16.15
2023-05-10T08:53:34.571Z,22.30
2023-05-10T08:56:03.345Z,20.67
2023-05-10T08:58:30.614Z,15.55
2023-05-10T09:00:59.082Z,15.00
2023-05-10T09:03:26.038Z,15.05
2023-05-10T09:05:53.317Z,14.93
2023-05-10T09:08:21.394Z,13.35
2023-05-10T09:10:49.927Z,15.40
2023-05-10T09:13:20.534Z,15.57
2023-05-10T09:15:48.239Z,15.23
2023-05-10T09:18:15.187Z,13.93
2023-05-10T09:20:42.369Z,15.95
2023-05-10T09:23:09.326Z,12.85
2023-05-10T09:25:36.657Z,16.38
2023-05-10T09:28:08.408Z,15.05
2023-05-10T09:30:36.020Z,16.58
2023-05-10T09:33:03.501Z,24.67
2023-05-10T09:35:32.471Z,20.27
2023-05-10T09:38:01.722Z,17.50
2023-05-10T09:40:30.724Z,21.05
2023-05-10T09:42:58.611Z,19.95
2023-05-10T09:45:28.645Z,18.23
2023-05-10T09:47:56.115Z,19.92
2023-05-10T09:50:23.882Z,19.65
2023-05-10T09:52:52.340Z,18.42
2023-05-10T09:55:21.601Z,21.30
2023-05-10T09:57:49.211Z,18.88
2023-05-10T10:00:20.452Z,19.20
2023-05-10T10:02:55.292Z,27.25
2023-05-10T10:05:22.264Z,23.45
2023-05-10T10:07:51.438Z,23.50
2023-05-10T10:10:18.471Z,16.73
2023-05-10T10:12:45.642Z,20.25
2023-05-10T10:15:14.589Z,23.90
2023-05-10T10:17:44.608Z,29.80
2023-05-10T10:20:13.663Z,28.40
2023-05-10T10:22:40.549Z,28.40
2023-05-10T10:25:09.530Z,29.75
2023-05-10T10:27:46.226Z,37.58
2023-05-10T10:30:22.440Z,38.80
2023-05-10T10:33:20.163Z,31.95
2023-05-10T10:35:59.071Z,40.67
2023-05-10T10:38:26.116Z,41.80
2023-05-10T10:41:03.821Z,44.90
2023-05-10T10:43:31.309Z,41.67
2023-05-10T10:46:15.340Z,50.90
2023-05-10T10:51:12.777Z,44.75
2023-05-10T10:53:41.954Z,26.92
2023-05-10T10:56:10.614Z,31.10
2023-05-10T10:58:39.014Z,24.33
2023-05-10T11:01:14.608Z,29.38
2023-05-10T11:03:42.323Z,24.10
2023-05-10T11:06:10.702Z,18.27
2023-05-10T11:08:47.131Z,21.30
2023-05-10T11:11:16.191Z,17.67
2023-05-10T11:13:47.765Z,19.83
2023-05-10T11:16:18.418Z,18.52
2023-05-10T11:19:00.684Z,26.15
2023-05-10T11:21:29.375Z,17.17
2023-05-10T11:23:57.710Z,27.38
2023-05-10T11:26:26.560Z,16.83
2023-05-10T11:28:57.922Z,16.35
2023-05-10T11:31:27.609Z,16.90
2023-05-10T11:33:56.324Z,15.88
2023-05-10T11:36:26.354Z,16.15
2023-05-10T11:38:55.769Z,27.88
2023-05-10T11:41:24.300Z,19.60
2023-05-10T11:43:52.554Z,14.20
2023-05-10T11:46:21.621Z,16.75
2023-05-10T11:48:51.031Z,16.42
2023-05-10T11:51:21.829Z,16.73
2023-05-10T11:53:50.252Z,19.95
2023-05-10T11:56:18.406Z,16.67
2023-05-10T11:58:45.995Z,17.75
2023-05-10T12:01:13.157Z,18.25
2023-05-10T12:03:41.780Z,20.10
2023-05-10T12:06:09.110Z,25.70
2023-05-10T12:08:35.897Z,20.27
2023-05-10T12:11:07.514Z,28.58
2023-05-10T12:13:39.413Z,18.63
2023-05-10T12:16:14.448Z,16.13
2023-05-10T12:18:41.497Z,22.45
2023-05-10T12:21:08.550Z,17.35
2023-05-10T12:23:35.488Z,15.02
2023-05-10T12:26:05.164Z,26.15
2023-05-10T12:28:33.010Z,18.77
2023-05-10T12:31:01.479Z,14.85
2023-05-10T12:33:28.353Z,23.58
2023-05-10T12:35:57.382Z,18.13
2023-05-10T12:38:26.657Z,26.27
2023-05-10T12:40:53.506Z,18.40
2023-05-10T12:43:20.467Z,13.13
2023-05-10T12:45:49.765Z,18.23
2023-05-10T12:48:18.076Z,17.48
2023-05-10T12:50:44.967Z,16.80
2023-05-10T12:53:11.957Z,15.98
2023-05-10T12:55:38.806Z,13.30
2023-05-10T12:58:05.820Z,13.77
2023-05-10T13:00:32.780Z,18.52
2023-05-10T13:02:59.626Z,18.45
2023-05-10T13:05:27.811Z,14.18
2023-05-10T13:07:54.638Z,19.27
2023-05-10T13:10:21.454Z,13.27
2023-05-10T13:12:48.253Z,17.80
2023-05-10T13:15:15.020Z,14.25
2023-05-10T13:17:43.751Z,11.40
2023-05-10T13:20:11.838Z,15.32
2023-05-10T13:22:40.752Z,24.73
2023-05-10T13:25:08.297Z,12.98
2023-05-10T13:27:35.164Z,22.08
2023-05-10T13:30:02.568Z,10.60
2023-05-10T13:32:29.582Z,13.55
2023-05-10T13:34:56.892Z,15.90
2023-05-10T13:37:23.972Z,11.63
2023-05-10T13:39:52.794Z,17.35
2023-05-10T13:42:19.723Z,16.98
2023-05-10T13:44:46.595Z,11.18
2023-05-10T13:47:13.498Z,18.45
2023-05-10T13:49:40.418Z,12.85
2023-05-10T13:52:08.095Z,9.63
2023-05-10T13:54:35.172Z,12.02
2023-05-10T13:57:03.464Z,13.07
2023-05-10T13:59:32.642Z,15.05
2023-05-10T14:01:59.909Z,14.93
2023-05-10T14:04:26.812Z,11.07
2023-05-10T14:06:54.149Z,12.57
2023-05-10T14:09:21.514Z,16.73
2023-05-10T14:11:48.457Z,9.68
2023-05-10T14:14:16.670Z,16.08
2023-05-10T14:16:45.191Z,16.48
2023-05-10T14:19:12.967Z,14.63
2023-05-10T14:21:39.998Z,11.38
2023-05-10T14:24:08.142Z,15.95
2023-05-10T14:26:37.645Z,10.13
2023-05-10T14:29:04.434Z,15.07
2023-05-10T14:31:33.003Z,17.90
2023-05-10T14:34:00.249Z,11.70
2023-05-10T14:36:27.116Z,11.02
2023-05-10T14:38:54.129Z,13.63
2023-05-10T14:41:21.068Z,12.63
2023-05-10T14:43:47.890Z,10.45
2023-05-10T14:46:14.737Z,16.13
2023-05-10T14:48:43.118Z,10.32
2023-05-10T14:51:10.004Z,10.48
2023-05-10T14:53:36.890Z,12.65
2023-05-10T14:56:04.096Z,13.00
2023-05-10T14:58:33.953Z,14.95
2023-05-10T15:01:01.223Z,12.88
2023-05-10T15:03:28.605Z,20.17
2023-05-10T15:05:58.676Z,9.95
2023-05-10T15:08:25.753Z,12.13
2023-05-10T15:10:53.060Z,11.38
2023-05-10T15:13:19.917Z,12.23
2023-05-10T15:15:46.830Z,12.10
2023-05-10T15:18:13.773Z,14.00
2023-05-10T15:20:40.611Z,10.52
2023-05-10T15:23:09.086Z,10.50
2023-05-10T15:25:38.286Z,12.32
2023-05-10T15:28:05.933Z,9.95
2023-05-10T15:30:32.782Z,9.75
2023-05-10T15:33:00.145Z,16.02
2023-05-10T15:35:27.240Z,14.60
2023-05-10T15:37:54.208Z,10.32
2023-05-10T15:40:22.502Z,10.07
2023-05-10T15:42:49.429Z,14.27
2023-05-10T15:45:16.980Z,9.93
2023-05-10T15:47:45.130Z,24.98
2023-05-10T15:50:12.574Z,10.25
2023-05-10T15:52:39.502Z,18.13
2023-05-10T15:55:12.964Z,11.82
2023-05-10T15:57:42.527Z,12.63
2023-05-10T16:00:11.013Z,9.13
2023-05-10T16:02:38.043Z,15.07
2023-05-10T16:05:05.714Z,12.20
2023-05-10T16:07:32.811Z,13.73
2023-05-10T16:09:59.782Z,13.60
2023-05-10T16:12:26.722Z,16.98
2023-05-10T16:14:54.964Z,10.35
2023-05-10T16:17:21.837Z,15.32
2023-05-10T16:19:48.788Z,14.82
2023-05-10T16:22:15.987Z,13.55
2023-05-10T16:24:42.828Z,11.55
2023-05-10T16:27:09.914Z,11.30
2023-05-10T16:29:36.918Z,18.50
2023-05-10T16:32:05.928Z,17.13
2023-05-10T16:34:32.751Z,11.70
2023-05-10T16:36:59.657Z,12.30
2023-05-10T16:39:26.506Z,9.68
2023-05-10T16:41:53.290Z,12.77
2023-05-10T16:44:21.060Z,11.45
2023-05-10T16:46:49.027Z,14.15
2023-05-10T16:49:17.681Z,9.55
2023-05-10T16:51:44.535Z,11.40
2023-05-10T16:54:11.406Z,10.18
2023-05-10T16:56:38.563Z,10.27
2023-05-10T16:59:05.892Z,11.52
2023-05-10T17:01:33.942Z,11.45
2023-05-10T17:04:00.908Z,8.30
2023-05-10T17:06:29.207Z,14.07
2023-05-10T17:08:56.228Z,13.98
2023-05-10T17:11:23.023Z,7.45
2023-05-10T17:13:50.043Z,9.18
2023-05-10T17:16:17.260Z,15.13
2023-05-10T17:18:45.878Z,8.25
2023-05-10T17:21:12.944Z,8.73
2023-05-10T17:23:41.274Z,20.13
2023-05-10T17:26:08.442Z,9.90
2023-05-10T17:28:35.678Z,14.68
2023-05-10T17:31:02.884Z,25.63
2023-05-10T17:33:29.727Z,10.15
2023-05-10T17:35:57.019Z,11.45
2023-05-10T17:38:23.921Z,12.18
2023-05-10T17:40:52.871Z,15.80
2023-05-10T17:43:20.425Z,8.25
2023-05-10T17:45:48.064Z,11.13
2023-05-10T17:48:14.975Z,13.82
2023-05-10T17:50:42.314Z,12.50
2023-05-10T17:53:09.198Z,9.60
2023-05-10T17:55:36.224Z,9.50
2023-05-10T17:58:04.381Z,14.07
2023-05-10T18:00:31.307Z,10.73
2023-05-10T18:02:58.128Z,7.43
2023-05-10T18:05:25.074Z,10.18
2023-05-10T18:07:51.955Z,14.50
2023-05-10T18:10:19.046Z,8.25
2023-05-10T18:12:45.763Z,10.88
2023-05-10T18:15:14.033Z,13.93
2023-05-10T18:17:40.960Z,9.60
2023-05-10T18:20:09.193Z,6.05
2023-05-10T18:22:36.128Z,5.43
2023-05-10T18:25:02.980Z,7.22
2023-05-10T18:27:29.964Z,7.43
2023-05-10T18:29:57.020Z,11.90
2023-05-10T18:32:25.511Z,11.18
2023-05-10T18:34:54.472Z,11.10
2023-05-10T18:37:22.600Z,7.55
2023-05-10T18:39:50.025Z,5.50
2023-05-10T18:42:16.916Z,9.38
2023-05-10T18:44:43.838Z,7.60
2023-05-10T18:47:10.719Z,6.95
2023-05-10T18:49:39.744Z,11.63
2023-05-10T18:52:06.604Z,7.85
2023-05-10T18:54:33.412Z,12.52
2023-05-10T18:57:00.319Z,9.85
2023-05-10T18:59:27.987Z,8.57
2023-05-10T19:01:56.499Z,7.53
2023-05-10T19:04:24.457Z,6.65
2023-05-10T19:06:53.168Z,14.27
2023-05-10T19:09:21.110Z,6.10
2023-05-10T19:11:48.491Z,6.85
2023-05-10T19:14:15.677Z,6.07
2023-05-10T19:16:43.076Z,9.15
2023-05-10T19:19:10.600Z,7.85
2023-05-10T19:21:39.051Z,7.68
2023-05-10T19:24:08.065Z,10.07
2023-05-10T19:26:36.414Z,6.07
2023-05-10T19:29:04.147Z,13.13
2023-05-10T19:31:31.280Z,7.10
2023-05-10T19:34:00.665Z,7.15
2023-05-10T19:36:27.813Z,9.75
2023-05-10T19:38:54.898Z,10.63
2023-05-10T19:41:23.106Z,10.38
2023-05-10T19:43:49.990Z,9.90
2023-05-10T19:46:17.921Z,8.68
2023-05-10T19:48:48.802Z,9.07
2023-05-10T19:51:17.090Z,8.55
2023-05-10T19:53:44.987Z,16.67
2023-05-10T19:56:14.274Z,11.13
2023-05-10T19:58:43.118Z,18.60
2023-05-10T20:01:09.985Z,16.15
2023-05-10T20:03:36.948Z,21.63
2023-05-10T20:06:04.336Z,17.60
2023-05-10T20:08:31.518Z,15.60
2023-05-10T20:11:00.637Z,11.57
2023-05-10T20:13:27.561Z,9.70
2023-05-10T20:15:57.127Z,10.60
2023-05-10T20:18:24.616Z,13.38
2023-05-10T20:20:54.373Z,13.07
2023-05-10T20:23:21.250Z,15.48
2023-05-10T20:25:48.292Z,12.40
2023-05-10T20:28:15.928Z,9.90
2023-05-10T20:30:42.824Z,10.65
2023-05-10T20:33:11.107Z,18.80
2023-05-10T20:35:37.993Z,20.13
2023-05-10T20:38:04.859Z,11.15
2023-05-10T20:40:32.052Z,13.23
2023-05-10T20:42:58.897Z,11.38
2023-05-10T20:45:26.081Z,15.55
2023-05-10T20:47:53.775Z,14.50
2023-05-10T20:50:22.304Z,8.82
2023-05-10T20:52:52.315Z,12.45
2023-05-10T20:55:19.275Z,15.52
2023-05-10T20:57:47.121Z,12.93
2023-05-10T21:00:14.897Z,11.95
2023-05-10T21:02:43.710Z,15.73
2023-05-10T21:05:10.737Z,19.75
2023-05-10T21:07:39.479Z,14.88
2023-05-10T21:10:08.201Z,11.63
2023-05-10T21:12:35.133Z,11.85
2023-05-10T21:15:03.067Z,20.45
2023-05-10T21:17:29.888Z,13.63
2023-05-10T21:19:56.900Z,7.07
2023-05-10T21:22:23.740Z,13.07
2023-05-10T21:24:52.079Z,13.93
2023-05-10T21:27:18.952Z,17.80
2023-05-10T21:29:45.897Z,14.68
2023-05-10T21:32:12.807Z,16.80
2023-05-10T21:34:39.703Z,17.98
2023-05-10T21:37:06.757Z,14.70
2023-05-10T21:39:33.621Z,24.42
2023-05-10T21:42:03.514Z,21.88
2023-05-10T21:44:31.801Z,13.43
2023-05-10T21:46:58.711Z,16.77
2023-05-10T21:49:26.347Z,16.23
2023-05-10T21:51:53.284Z,13.68
2023-05-10T21:54:20.219Z,18.25
2023-05-10T21:56:47.267Z,17.23
2023-05-10T21:59:15.573Z,15.63
2023-05-10T22:01:43.805Z,16.48
2023-05-10T22:04:10.908Z,26.20
2023-05-10T22:06:37.762Z,11.70
2023-05-10T22:09:05.119Z,14.55
2023-05-10T22:11:31.995Z,13.38
2023-05-10T22:13:59.093Z,15.23
2023-05-10T22:16:27.394Z,14.48
2023-05-10T22:18:54.608Z,18.48
2023-05-10T22:21:21.700Z,16.77
2023-05-10T22:23:48.675Z,11.32
2023-05-10T22:26:15.583Z,12.98
2023-05-10T22:28:42.469Z,15.40
2023-05-10T22:31:10.552Z,14.73
2023-05-10T22:33:38.821Z,12.40
2023-05-10T22:36:06.790Z,15.70
2023-05-10T22:38:33.641Z,20.02
2023-05-10T22:41:00.709Z,12.60
2023-05-10T22:43:27.554Z,19.95
2023-05-10T22:45:54.468Z,20.13
2023-05-10T22:48:22.083Z,16.52
2023-05-10T22:50:50.443Z,11.38
2023-05-10T22:53:17.231Z,20.63
2023-05-10T22:55:44.156Z,16.83
2023-05-10T22:58:11.307Z,19.17
2023-05-10T23:00:38.355Z,26.60
2023-05-10T23:03:05.495Z,22.33
2023-05-10T23:05:32.504Z,17.73
2023-05-10T23:08:00.988Z,12.75
2023-05-10T23:10:27.898Z,18.50
2023-05-10T23:12:56.027Z,21.75
2023-05-10T23:15:23.012Z,20.05
2023-05-10T23:17:49.935Z,19.50
2023-05-10T23:20:17.139Z,19.67
2023-05-10T23:22:45.010Z,17.33
2023-05-10T23:25:13.200Z,19.55
2023-05-10T23:27:40.098Z,26.08
2023-05-10T23:30:08.286Z,18.63
2023-05-10T23:32:35.123Z,19.88
2023-05-10T23:35:01.990Z,21.65
2023-05-10T23:37:29.071Z,15.95
2023-05-10T23:39:55.967Z,21.92
2023-05-10T23:42:24.168Z,23.98
2023-05-10T23:44:51.137Z,19.92
2023-05-10T23:47:18.159Z,23.77
2023-05-10T23:49:45.107Z,24.13
2023-05-10T23:52:12.003Z,20.55
2023-05-10T23:54:39.221Z,16.40
2023-05-10T23:57:06.221Z,18.17
2023-05-10T23:59:34.444Z,16.58
